createdAt,value
2018-12-14T00:02:07.449Z,27.70
2018-12-14T00:04:38.486Z,25.97
2018-12-14T00:07:09.501Z,27.60
2018-12-14T00:09:38.497Z,23.90
2018-12-14T00:12:07.536Z,23.33
2018-12-14T00:14:36.687Z,23.43
2018-12-14T00:17:05.766Z,23.00
2018-12-14T00:19:35.045Z,24.00
2018-12-14T00:22:04.181Z,23.83
2018-12-14T00:24:33.274Z,23.20
2018-12-14T00:27:02.953Z,24.17
2018-12-14T00:29:32.176Z,25.47
2018-12-14T00:32:01.285Z,24.13
2018-12-14T00:34:30.366Z,24.03
2018-12-14T00:36:59.520Z,24.53
2018-12-14T00:39:28.552Z,24.33
2018-12-14T00:41:58.151Z,23.00
2018-12-14T00:44:27.233Z,26.17
2018-12-14T00:46:56.277Z,22.30
2018-12-14T00:49:25.320Z,22.53
2018-12-14T00:51:54.495Z,23.47
2018-12-14T00:54:23.674Z,22.67
2018-12-14T00:56:52.789Z,22.67
2018-12-14T00:59:21.855Z,22.23
2018-12-14T01:01:51.121Z,22.27
2018-12-14T01:04:20.161Z,21.57
2018-12-14T01:06:49.172Z,23.23
2018-12-14T01:09:18.158Z,22.20
2018-12-14T01:11:47.219Z,22.87
2018-12-14T01:14:16.320Z,21.73
2018-12-14T01:16:45.345Z,21.63
2018-12-14T01:19:14.433Z,21.87
2018-12-14T01:21:43.501Z,21.13
2018-12-14T01:24:12.521Z,22.40
2018-12-14T01:26:41.545Z,21.17
2018-12-14T01:29:10.624Z,20.07
2018-12-14T01:31:39.642Z,20.40
2018-12-14T01:34:08.669Z,20.00
2018-12-14T01:36:37.789Z,19.47
2018-12-14T01:39:07.804Z,20.87
2018-12-14T01:41:36.864Z,19.03
2018-12-14T01:44:05.959Z,19.20
2018-12-14T01:46:35.100Z,19.70
2018-12-14T01:49:04.153Z,19.23
2018-12-14T01:51:33.313Z,19.13
2018-12-14T01:54:02.355Z,18.63
2018-12-14T01:56:31.409Z,19.70
2018-12-14T01:59:00.526Z,19.13
2018-12-14T02:01:29.505Z,17.83
2018-12-14T02:03:58.589Z,18.57
2018-12-14T02:06:27.648Z,19.10
2018-12-14T02:08:56.729Z,20.60
2018-12-14T02:11:25.783Z,19.53
2018-12-14T02:13:54.848Z,19.00
2018-12-14T02:16:23.934Z,19.23
2018-12-14T02:18:52.933Z,19.63
2018-12-14T02:21:21.997Z,19.87
2018-12-14T02:23:51.237Z,19.90
2018-12-14T02:26:21.308Z,19.10
2018-12-14T02:28:50.353Z,19.83
2018-12-14T02:31:19.636Z,19.23
2018-12-14T02:33:48.666Z,19.30
2018-12-14T02:36:17.789Z,19.17
2018-12-14T02:38:46.973Z,19.40
2018-12-14T02:41:16.018Z,19.10
2018-12-14T02:43:45.275Z,18.83
2018-12-14T02:46:14.424Z,18.53
2018-12-14T02:48:43.450Z,18.70
2018-12-14T02:51:12.563Z,19.37
2018-12-14T02:53:41.641Z,19.00
2018-12-14T02:56:10.666Z,18.03
2018-12-14T02:58:39.710Z,21.00
2018-12-14T03:01:08.728Z,22.13
2018-12-14T03:03:37.798Z,22.77
2018-12-14T03:06:07.086Z,23.90
2018-12-14T03:08:36.164Z,22.10
2018-12-14T03:11:05.194Z,20.67
2018-12-14T03:13:34.322Z,21.10
2018-12-14T03:16:03.371Z,19.53
2018-12-14T03:18:32.594Z,19.50
2018-12-14T03:21:01.616Z,18.37
2018-12-14T03:23:30.653Z,17.90
2018-12-14T03:25:59.661Z,17.43
2018-12-14T03:28:28.906Z,17.77
2018-12-14T03:30:57.979Z,17.57
2018-12-14T03:33:27.194Z,17.37
2018-12-14T03:35:56.226Z,16.27
2018-12-14T03:38:25.290Z,17.07
2018-12-14T03:40:54.371Z,17.13
2018-12-14T03:43:23.476Z,17.13
2018-12-14T03:45:52.530Z,17.33
2018-12-14T03:48:21.661Z,17.50
2018-12-14T03:50:50.734Z,17.67
2018-12-14T03:53:19.843Z,16.83
2018-12-14T03:55:48.957Z,16.93
2018-12-14T03:58:18.211Z,17.03
2018-12-14T04:00:47.363Z,17.67
2018-12-14T04:03:16.354Z,17.03
2018-12-14T04:05:45.345Z,17.30
2018-12-14T04:08:14.400Z,17.23
2018-12-14T04:10:43.384Z,16.93
2018-12-14T04:13:12.434Z,16.87
2018-12-14T04:15:41.592Z,16.90
2018-12-14T04:18:10.626Z,17.50
2018-12-14T04:20:39.792Z,17.30
2018-12-14T04:23:08.837Z,17.57
2018-12-14T04:25:38.077Z,17.23
2018-12-14T04:28:07.120Z,18.07
2018-12-14T04:30:36.250Z,17.90
2018-12-14T04:33:05.374Z,16.67
2018-12-14T04:35:34.454Z,16.83
2018-12-14T04:38:05.776Z,16.50
2018-12-14T04:40:34.852Z,16.23
2018-12-14T04:43:03.886Z,14.93
2018-12-14T04:45:32.965Z,48.83
2018-12-14T04:48:01.957Z,16.30
2018-12-14T04:50:30.971Z,14.63
2018-12-14T04:52:59.953Z,15.67
2018-12-14T04:55:29.059Z,15.07
2018-12-14T04:57:58.092Z,15.80
2018-12-14T05:00:27.193Z,14.40
2018-12-14T05:02:56.196Z,15.40
2018-12-14T05:05:25.172Z,15.37
2018-12-14T05:07:54.251Z,15.87
2018-12-14T05:10:23.385Z,16.27
2018-12-14T05:12:56.138Z,16.33
2018-12-14T05:15:23.356Z,16.03
2018-12-14T05:17:52.371Z,16.03
2018-12-14T05:20:21.336Z,16.43
2018-12-14T05:22:50.400Z,14.83
2018-12-14T05:25:20.394Z,15.00
2018-12-14T05:27:49.487Z,15.13
2018-12-14T05:30:18.902Z,16.50
2018-12-14T05:32:47.929Z,15.97
2018-12-14T05:35:16.949Z,15.83
2018-12-14T05:37:46.105Z,16.07
2018-12-14T05:40:15.125Z,15.60
2018-12-14T05:42:44.122Z,15.87
2018-12-14T05:45:13.222Z,15.70
2018-12-14T05:47:42.285Z,15.53
2018-12-14T05:50:11.273Z,16.63
2018-12-14T05:52:40.322Z,16.00
2018-12-14T05:55:09.363Z,15.83
2018-12-14T05:57:38.410Z,15.93
2018-12-14T06:00:10.375Z,15.30
2018-12-14T06:02:39.418Z,15.83
2018-12-14T06:05:08.694Z,15.07
2018-12-14T06:07:37.677Z,15.23
2018-12-14T06:10:07.272Z,15.27
2018-12-14T06:12:36.410Z,14.77
2018-12-14T06:15:05.919Z,15.47
2018-12-14T06:17:34.941Z,14.33
2018-12-14T06:20:03.964Z,15.97
2018-12-14T06:22:32.998Z,16.47
2018-12-14T06:25:02.158Z,16.10
2018-12-14T06:27:31.229Z,16.10
2018-12-14T06:30:00.281Z,16.03
2018-12-14T06:32:29.309Z,16.10
2018-12-14T06:34:58.301Z,16.93
2018-12-14T06:37:27.604Z,16.87
2018-12-14T06:39:56.628Z,19.70
2018-12-14T06:42:25.799Z,26.43
2018-12-14T06:44:55.340Z,26.17
2018-12-14T06:47:25.111Z,20.50
2018-12-14T06:49:54.177Z,21.97
2018-12-14T06:52:23.260Z,21.07
2018-12-14T06:54:52.323Z,24.70
2018-12-14T06:57:21.392Z,24.93
2018-12-14T06:59:50.460Z,22.43
2018-12-14T07:02:19.561Z,22.43
2018-12-14T07:04:48.654Z,26.13
2018-12-14T07:07:17.718Z,25.00
2018-12-14T07:09:46.784Z,21.03
2018-12-14T07:12:15.813Z,19.37
2018-12-14T07:14:44.877Z,22.97
2018-12-14T07:17:14.013Z,25.87
2018-12-14T07:19:42.981Z,17.83
2018-12-14T07:22:12.029Z,17.73
2018-12-14T07:24:41.048Z,18.30
2018-12-14T07:27:10.205Z,20.33
2018-12-14T07:29:39.350Z,17.43
2018-12-14T07:32:08.488Z,19.07
2018-12-14T07:34:37.584Z,17.83
2018-12-14T07:37:06.685Z,16.87
2018-12-14T07:39:35.800Z,19.57
2018-12-14T07:42:04.844Z,19.27
2018-12-14T07:44:34.062Z,19.07
2018-12-14T07:47:03.241Z,18.20
2018-12-14T07:49:32.262Z,19.60
2018-12-14T07:52:01.644Z,19.57
2018-12-14T07:54:30.657Z,18.73
2018-12-14T07:56:59.699Z,18.77
2018-12-14T07:59:28.797Z,18.30
2018-12-14T08:01:57.842Z,19.13
2018-12-14T08:04:27.385Z,17.80
2018-12-14T08:06:56.697Z,17.20
2018-12-14T08:09:25.978Z,18.40
2018-12-14T08:11:55.029Z,17.97
2018-12-14T08:14:24.073Z,18.37
2018-12-14T08:16:53.111Z,18.30
2018-12-14T08:19:22.130Z,19.23
2018-12-14T08:21:51.125Z,20.77
2018-12-14T08:24:20.282Z,23.67
2018-12-14T08:26:49.365Z,20.27
2018-12-14T08:29:18.601Z,20.67
2018-12-14T08:31:47.853Z,21.60
2018-12-14T08:34:16.880Z,21.00
2018-12-14T08:36:45.900Z,18.73
2018-12-14T08:39:15.022Z,21.20
2018-12-14T08:41:44.035Z,44.13
2018-12-14T08:44:13.125Z,43.10
2018-12-14T08:46:42.173Z,30.63
2018-12-14T08:49:11.316Z,25.50
2018-12-14T08:51:40.284Z,35.63
2018-12-14T08:54:09.354Z,147.10
2018-12-14T08:56:38.332Z,158.10
2018-12-14T08:59:07.387Z,55.23
2018-12-14T09:01:36.437Z,40.97
2018-12-14T09:04:05.465Z,109.80
2018-12-14T09:06:34.576Z,69.07
2018-12-14T09:09:06.090Z,30.80
2018-12-14T09:11:36.990Z,78.37
2018-12-14T09:14:06.024Z,65.73
2018-12-14T09:16:35.239Z,78.07
2018-12-14T09:19:04.725Z,39.03
2018-12-14T09:21:33.815Z,46.77
2018-12-14T09:24:02.883Z,49.37
2018-12-14T09:26:31.906Z,27.70
2018-12-14T09:29:01.305Z,39.00
2018-12-14T09:31:31.750Z,54.53
2018-12-14T09:34:00.805Z,30.37
2018-12-14T09:36:30.389Z,31.33
2018-12-14T09:38:59.422Z,36.20
2018-12-14T09:41:28.528Z,39.30
2018-12-14T09:43:57.587Z,32.70
2018-12-14T09:46:26.594Z,35.40
2018-12-14T09:48:55.736Z,45.60
2018-12-14T09:51:24.882Z,32.17
2018-12-14T09:53:53.937Z,33.80
2018-12-14T09:56:23.129Z,27.10
2018-12-14T09:58:52.285Z,26.57
2018-12-14T10:01:21.292Z,26.83
2018-12-14T10:03:50.487Z,27.87
2018-12-14T10:06:19.620Z,27.67
2018-12-14T10:08:48.641Z,31.37
2018-12-14T10:11:17.758Z,26.57
2018-12-14T10:13:46.810Z,28.90
2018-12-14T10:16:16.430Z,25.47
2018-12-14T10:18:45.734Z,25.93
2018-12-14T10:21:14.908Z,32.87
2018-12-14T10:23:44.728Z,33.43
2018-12-14T10:26:13.993Z,37.37
2018-12-14T10:28:43.197Z,34.97
2018-12-14T10:31:12.441Z,39.47
2018-12-14T10:33:41.792Z,34.67
2018-12-14T10:36:10.912Z,33.30
2018-12-14T10:38:40.419Z,34.83
2018-12-14T10:41:10.497Z,31.63
2018-12-14T10:43:39.677Z,29.00
2018-12-14T10:46:08.681Z,24.77
2018-12-14T10:48:37.797Z,28.80
2018-12-14T10:51:06.820Z,24.67
2018-12-14T10:53:35.900Z,26.67
2018-12-14T10:56:05.840Z,25.90
2018-12-14T10:58:34.932Z,24.13
2018-12-14T11:01:09.324Z,25.17
2018-12-14T11:18:16.677Z,26.43
2018-12-14T11:28:02.255Z,24.57
2018-12-14T11:37:49.413Z,23.27
2018-12-14T11:40:18.461Z,23.70
2018-12-14T11:42:47.498Z,24.07
2018-12-14T11:45:16.501Z,23.13
2018-12-14T11:47:45.501Z,32.23
2018-12-14T11:50:14.562Z,29.60
2018-12-14T11:52:43.634Z,27.73
2018-12-14T11:55:12.696Z,26.03
2018-12-14T11:57:41.701Z,23.93
2018-12-14T12:00:13.893Z,24.43
2018-12-14T12:02:43.502Z,25.47
2018-12-14T12:05:13.471Z,27.17
2018-12-14T12:07:43.376Z,26.03
2018-12-14T12:10:12.414Z,24.00
2018-12-14T12:12:41.674Z,25.33
2018-12-14T12:15:10.677Z,36.27
2018-12-14T12:17:40.558Z,27.93
2018-12-14T12:20:09.722Z,26.20
2018-12-14T12:22:38.924Z,24.83
2018-12-14T12:25:08.069Z,27.27
2018-12-14T12:27:37.129Z,26.20
2018-12-14T12:30:07.462Z,23.87
2018-12-14T12:32:36.680Z,25.20
2018-12-14T12:35:05.780Z,26.20
2018-12-14T12:37:34.873Z,30.03
2018-12-14T12:40:03.941Z,30.43
2018-12-14T12:42:33.012Z,27.53
2018-12-14T12:45:02.245Z,25.27
2018-12-14T12:47:31.443Z,25.43
2018-12-14T12:50:00.478Z,26.07
2018-12-14T12:52:29.572Z,27.90
2018-12-14T12:54:58.686Z,24.80
2018-12-14T12:57:27.828Z,25.37
2018-12-14T12:59:56.912Z,27.80
2018-12-14T13:02:26.009Z,29.70
2018-12-14T13:04:55.263Z,28.47
2018-12-14T13:07:24.395Z,26.53
2018-12-14T13:09:53.432Z,26.17
2018-12-14T13:12:22.426Z,27.63
2018-12-14T13:14:51.465Z,28.23
2018-12-14T13:17:20.489Z,30.57
2018-12-14T13:19:49.545Z,29.13
2018-12-14T13:22:18.649Z,27.77
2018-12-14T13:24:47.833Z,26.27
2018-12-14T13:27:20.259Z,29.57
2018-12-14T13:29:48.062Z,27.53
2018-12-14T13:32:17.059Z,26.67
2018-12-14T13:34:46.270Z,27.77
2018-12-14T13:37:15.292Z,28.60
2018-12-14T13:39:44.308Z,29.53
2018-12-14T13:42:13.393Z,30.20
2018-12-14T13:44:46.478Z,28.23
2018-12-14T13:47:13.828Z,28.37
2018-12-14T13:49:42.942Z,26.97
2018-12-14T13:52:12.044Z,26.97
2018-12-14T13:54:41.066Z,33.13
2018-12-14T13:57:10.105Z,29.23
2018-12-14T13:59:39.150Z,28.83
2018-12-14T14:02:08.288Z,32.37
2018-12-14T14:04:37.461Z,29.97
2018-12-14T14:07:06.736Z,30.20
2018-12-14T14:09:35.907Z,31.37
2018-12-14T14:12:05.017Z,32.70
2018-12-14T14:14:35.042Z,37.37
2018-12-14T14:17:04.075Z,34.87
2018-12-14T14:19:33.401Z,160.00
2018-12-14T14:22:02.560Z,55.33
2018-12-14T14:24:31.701Z,39.83
2018-12-14T14:27:00.739Z,41.97
2018-12-14T14:29:29.850Z,38.77
2018-12-14T14:31:58.999Z,39.27
2018-12-14T14:34:28.096Z,42.10
2018-12-14T14:36:58.209Z,38.23
2018-12-14T14:39:32.192Z,39.83
2018-12-14T14:42:01.291Z,31.30
2018-12-14T14:44:30.419Z,33.27
2018-12-14T14:47:00.662Z,37.90
2018-12-14T14:49:29.782Z,45.97
2018-12-14T14:51:58.792Z,37.83
2018-12-14T14:54:27.821Z,68.23
2018-12-14T14:56:56.885Z,64.13
2018-12-14T14:59:25.881Z,43.60
2018-12-14T15:01:54.977Z,38.70
2018-12-14T15:04:24.142Z,38.00
2018-12-14T15:06:53.350Z,42.53
2018-12-14T15:09:22.466Z,44.67
2018-12-14T15:11:51.560Z,39.23
2018-12-14T15:14:20.616Z,37.90
2018-12-14T15:16:49.732Z,36.77
2018-12-14T15:19:18.811Z,45.93
2018-12-14T15:21:47.921Z,38.37
2018-12-14T15:24:17.128Z,36.50
2018-12-14T15:26:46.280Z,39.63
2018-12-14T15:29:15.288Z,53.70
2018-12-14T15:31:44.917Z,41.40
2018-12-14T15:34:14.585Z,38.63
2018-12-14T15:36:43.917Z,44.00
2018-12-14T15:39:12.981Z,39.83
2018-12-14T15:41:43.037Z,42.43
2018-12-14T15:44:12.204Z,39.67
2018-12-14T15:46:41.292Z,41.13
2018-12-14T15:49:10.338Z,37.33
2018-12-14T15:51:39.646Z,35.33
2018-12-14T15:54:08.672Z,35.63
2018-12-14T15:56:37.708Z,37.23
2018-12-14T15:59:06.881Z,37.87
2018-12-14T16:01:35.996Z,35.27
2018-12-14T16:04:05.051Z,36.13
2018-12-14T16:06:34.185Z,40.03
2018-12-14T16:09:04.313Z,36.50
2018-12-14T16:11:35.349Z,35.93
2018-12-14T16:14:08.396Z,37.37
2018-12-14T16:16:37.629Z,37.23
2018-12-14T16:19:06.752Z,36.30
2018-12-14T16:21:36.555Z,35.43
2018-12-14T16:24:05.625Z,34.60
2018-12-14T16:26:34.755Z,37.30
2018-12-14T16:29:04.362Z,33.30
2018-12-14T16:31:33.504Z,39.73
2018-12-14T16:34:02.649Z,38.63
2018-12-14T16:36:33.569Z,38.43
2018-12-14T16:39:02.798Z,36.90
2018-12-14T16:41:33.785Z,35.73
2018-12-14T16:44:03.409Z,36.40
2018-12-14T16:46:32.557Z,39.00
2018-12-14T16:49:02.059Z,41.37
2018-12-14T16:51:31.143Z,37.40
2018-12-14T16:54:02.296Z,35.87
2018-12-14T16:56:33.229Z,38.37
2018-12-14T16:59:03.281Z,39.97
2018-12-14T17:01:33.683Z,37.57
2018-12-14T17:04:04.528Z,41.40
2018-12-14T17:06:34.610Z,43.70
2018-12-14T17:09:06.108Z,41.50
2018-12-14T17:11:37.894Z,39.20
2018-12-14T17:14:07.621Z,38.97
2018-12-14T17:16:37.437Z,43.30
2018-12-14T17:19:07.273Z,43.67
2018-12-14T17:21:37.177Z,39.43
2018-12-14T17:24:07.048Z,38.67
2018-12-14T17:26:36.329Z,37.60
2018-12-14T17:29:05.330Z,38.17
2018-12-14T17:31:34.432Z,38.57
2018-12-14T17:34:03.482Z,41.43
2018-12-14T17:36:32.713Z,38.13
2018-12-14T17:39:02.139Z,41.37
2018-12-14T17:41:33.208Z,42.33
2018-12-14T17:44:02.206Z,40.40
2018-12-14T17:46:31.499Z,39.20
2018-12-14T17:49:00.677Z,40.70
2018-12-14T17:51:29.906Z,38.47
2018-12-14T17:53:59.045Z,40.10
2018-12-14T17:56:28.045Z,40.80
2018-12-14T17:58:57.290Z,40.67
2018-12-14T18:01:26.346Z,37.93
2018-12-14T18:03:55.426Z,39.30
2018-12-14T18:06:24.483Z,40.73
2018-12-14T18:08:53.625Z,42.30
2018-12-14T18:11:22.714Z,39.87
2018-12-14T18:13:51.759Z,40.23
2018-12-14T18:16:20.857Z,42.07
2018-12-14T18:18:49.924Z,41.63
2018-12-14T18:21:19.057Z,40.17
2018-12-14T18:23:48.073Z,41.57
2018-12-14T18:26:17.202Z,38.93
2018-12-14T18:28:46.382Z,40.00
2018-12-14T18:31:15.470Z,38.77
2018-12-14T18:33:44.513Z,39.47
2018-12-14T18:36:13.517Z,40.10
2018-12-14T18:38:44.041Z,37.00
2018-12-14T18:41:13.149Z,39.33
2018-12-14T18:43:42.191Z,39.90
2018-12-14T18:46:11.288Z,40.00
2018-12-14T18:48:40.429Z,39.30
2018-12-14T18:51:09.521Z,39.20
2018-12-14T18:53:40.665Z,39.50
2018-12-14T18:56:09.736Z,41.63
2018-12-14T18:58:38.797Z,38.27
2018-12-14T19:01:07.932Z,40.10
2018-12-14T19:03:36.994Z,38.07
2018-12-14T19:06:06.054Z,40.20
2018-12-14T19:08:35.213Z,42.57
2018-12-14T19:11:04.290Z,42.50
2018-12-14T19:13:33.393Z,39.57
2018-12-14T19:16:02.481Z,39.37
2018-12-14T19:18:31.537Z,40.73
2018-12-14T19:21:01.779Z,40.60
2018-12-14T19:23:30.750Z,40.00
2018-12-14T19:25:59.902Z,37.60
2018-12-14T19:28:29.072Z,37.57
2018-12-14T19:30:58.306Z,36.23
2018-12-14T19:33:27.412Z,37.10
2018-12-14T19:35:56.663Z,36.77
2018-12-14T19:38:25.678Z,36.93
2018-12-14T19:40:54.736Z,35.70
2018-12-14T19:43:23.731Z,38.43
2018-12-14T19:45:52.804Z,39.23
2018-12-14T19:48:21.849Z,39.43
2018-12-14T19:50:51.033Z,38.80
2018-12-14T19:53:20.090Z,38.33
2018-12-14T19:55:49.150Z,41.23
2018-12-14T19:58:18.497Z,39.00
2018-12-14T20:00:47.657Z,41.13
2018-12-14T20:03:16.907Z,38.37
2018-12-14T20:05:45.941Z,38.73
2018-12-14T20:08:15.070Z,38.90
2018-12-14T20:10:44.294Z,39.73
2018-12-14T20:13:15.304Z,37.23
2018-12-14T20:15:44.346Z,37.87
2018-12-14T20:18:13.492Z,40.13
2018-12-14T20:20:42.781Z,39.87
2018-12-14T20:23:11.960Z,40.67
2018-12-14T20:25:41.018Z,42.43
2018-12-14T20:28:10.884Z,53.30
2018-12-14T20:30:40.439Z,45.33
2018-12-14T20:33:09.943Z,47.00
2018-12-14T20:35:39.654Z,43.10
2018-12-14T20:38:08.854Z,40.23
2018-12-14T20:40:37.918Z,43.53
2018-12-14T20:43:06.945Z,43.40
2018-12-14T20:45:35.982Z,43.27
2018-12-14T20:48:05.092Z,44.13
2018-12-14T20:50:34.413Z,42.57
2018-12-14T20:53:03.424Z,46.87
2018-12-14T20:55:32.980Z,45.57
2018-12-14T20:58:02.385Z,45.97
2018-12-14T21:00:31.508Z,48.53
2018-12-14T21:03:00.673Z,46.23
2018-12-14T21:05:29.705Z,44.27
2018-12-14T21:07:58.830Z,43.10
2018-12-14T21:10:27.914Z,42.90
2018-12-14T21:12:57.090Z,41.47
2018-12-14T21:15:26.091Z,48.93
2018-12-14T21:17:55.309Z,59.97
2018-12-14T21:20:24.349Z,53.37
2018-12-14T21:22:53.437Z,51.67
2018-12-14T21:25:22.679Z,65.57
2018-12-14T21:27:52.286Z,81.57
2018-12-14T21:30:21.393Z,51.43
2018-12-14T21:32:50.482Z,50.67
2018-12-14T21:35:19.532Z,50.57
2018-12-14T21:37:48.729Z,47.63
2018-12-14T21:40:17.849Z,43.63
2018-12-14T21:42:46.953Z,45.43
2018-12-14T21:45:16.037Z,47.17
2018-12-14T21:47:45.476Z,49.93
2018-12-14T21:50:14.560Z,44.47
2018-12-14T21:52:43.874Z,43.73
2018-12-14T21:55:12.993Z,45.03
2018-12-14T21:57:42.377Z,41.20
2018-12-14T22:00:11.927Z,42.30
2018-12-14T22:02:41.088Z,42.40
2018-12-14T22:05:10.122Z,43.37
2018-12-14T22:07:39.232Z,44.93
2018-12-14T22:10:09.159Z,43.33
2018-12-14T22:12:38.222Z,42.20
2018-12-14T22:15:07.383Z,40.73
2018-12-14T22:17:36.459Z,39.20
2018-12-14T22:20:08.503Z,39.37
2018-12-14T22:22:37.677Z,38.33
2018-12-14T22:25:07.946Z,41.47
2018-12-14T22:27:37.001Z,41.27
2018-12-14T22:30:06.293Z,38.77
2018-12-14T22:32:35.529Z,37.87
2018-12-14T22:35:04.662Z,39.70
2018-12-14T22:37:33.672Z,38.73
2018-12-14T22:40:02.673Z,38.73
2018-12-14T22:42:31.768Z,37.43
2018-12-14T22:45:00.744Z,39.33
2018-12-14T22:47:29.927Z,38.53
2018-12-14T22:49:59.089Z,41.80
2018-12-14T22:52:28.195Z,39.63
2018-12-14T22:54:57.321Z,41.13
2018-12-14T22:57:26.361Z,41.60
2018-12-14T22:59:55.423Z,41.97
2018-12-14T23:02:25.434Z,38.80
2018-12-14T23:04:56.561Z,40.63
2018-12-14T23:07:25.585Z,41.33
2018-12-14T23:09:54.599Z,43.97
2018-12-14T23:12:25.625Z,39.17
2018-12-14T23:14:54.654Z,37.67
2018-12-14T23:17:23.702Z,37.30
2018-12-14T23:19:52.743Z,38.80
2018-12-14T23:22:21.897Z,37.40
2018-12-14T23:24:50.966Z,37.47
2018-12-14T23:27:20.121Z,37.67
2018-12-14T23:29:52.676Z,39.50
2018-12-14T23:32:21.765Z,39.20
2018-12-14T23:34:50.923Z,41.60
2018-12-14T23:37:19.923Z,40.10
2018-12-14T23:39:49.000Z,41.37
2018-12-14T23:42:18.144Z,40.03
2018-12-14T23:44:50.800Z,51.13
2018-12-14T23:47:22.366Z,43.87
2018-12-14T23:49:54.323Z,40.47
2018-12-14T23:52:26.329Z,38.80
2018-12-14T23:54:55.537Z,42.57
2018-12-14T23:57:24.614Z,44.63
2018-12-14T23:59:53.734Z,38.33
